Time,TemperatureF,DewpointF,PressureIn,WindDirection,WindDirectionDegrees,WindSpeedMPH,WindSpeedGustMPH,Humidity,HourlyPrecipIn,Conditions,Clouds,dailyrainin,SoftwareType,DateUTC
2013-07-21 00:01:00,70.9,11.7,29.77,NNE,23,0.0,0.0,1,0.00,,,0.00,WUHU216HW,2013-07-21 04:01:00,
2013-07-21 00:06:00,71.1,11.8,29.77,NNE,23,0.0,0.0,1,0.00,,,0.00,WUHU216HW,2013-07-21 04:06:00,
2013-07-21 00:11:00,71.1,11.8,29.78,NNE,23,0.0,0.0,1,0.00,,,0.00,WUHU216HW,2013-07-21 04:11:00,
2013-07-21 00:16:00,71.1,11.8,29.77,NNE,23,0.0,0.0,1,0.00,,,0.00,WUHU216HW,2013-07-21 04:16:00,
2013-07-21 00:21:00,71.3,12.0,29.77,NNE,23,0.0,0.0,1,0.00,,,0.00,WUHU216HW,2013-07-21 04:21:00,
2013-07-21 00:26:00,71.1,11.8,29.77,NNE,23,0.0,0.0,1,0.00,,,0.00,WUHU216HW,2013-07-21 04:26:00,
2013-07-21 00:31:00,71.1,11.8,29.77,NNE,23,0.0,0.0,1,0.00,,,0.00,WUHU216HW,2013-07-21 04:31:00,
2013-07-21 00:36:00,70.9,11.7,29.77,NNE,23,0.0,0.0,1,0.00,,,0.00,WUHU216HW,2013-07-21 04:36:00,
2013-07-21 00:41:00,70.9,11.7,29.77,NNE,23,0.0,0.0,1,0.00,,,0.00,WUHU216HW,2013-07-21 04:41:00,
2013-07-21 00:46:00,70.7,11.5,29.77,NNE,23,0.0,0.0,1,0.00,,,0.00,WUHU216HW,2013-07-21 04:46:00,
2013-07-21 00:51:00,70.6,11.3,29.78,NNE,23,0.0,0.0,1,0.00,,,0.00,WUHU216HW,2013-07-21 04:51:00,
2013-07-21 00:56:00,70.4,11.3,29.78,NNE,23,0.0,0.0,1,0.00,,,0.00,WUHU216HW,2013-07-21 04:56:00,
2013-07-21 01:01:00,70.4,11.3,29.78,NNE,23,0.0,0.0,1,0.00,,,0.00,WUHU216HW,2013-07-21 05:01:00,
2013-07-21 01:06:00,70.4,11.3,29.78,NNE,23,0.0,0.0,1,0.00,,,0.00,WUHU216HW,2013-07-21 05:06:00,
2013-07-21 01:11:00,70.4,11.3,29.79,NNE,23,0.0,0.0,1,0.00,,,0.00,WUHU216HW,2013-07-21 05:11:00,
2013-07-21 01:16:00,70.4,11.3,29.78,NNE,23,0.0,0.0,1,0.00,,,0.00,WUHU216HW,2013-07-21 05:16:00,
2013-07-21 01:21:00,70.6,11.3,29.78,NNE,23,0.0,0.0,1,0.00,,,0.00,WUHU216HW,2013-07-21 05:21:00,
2013-07-21 01:26:00,70.7,11.5,29.78,NNE,23,0.0,0.0,1,0.00,,,0.00,WUHU216HW,2013-07-21 05:26:00,
2013-07-21 01:31:00,70.7,11.5,29.78,NNE,23,0.0,0.0,1,0.00,,,0.00,WUHU216HW,2013-07-21 05:31:00,
2013-07-21 01:36:00,70.9,11.7,29.78,NNE,23,0.0,0.0,1,0.00,,,0.00,WUHU216HW,2013-07-21 05:36:00,
2013-07-21 01:41:00,70.9,11.7,29.78,NNE,23,0.0,0.0,1,0.00,,,0.00,WUHU216HW,2013-07-21 05:41:00,
2013-07-21 01:46:00,70.9,11.7,29.78,NNE,23,0.0,0.0,1,0.00,,,0.00,WUHU216HW,2013-07-21 05:46:00,
2013-07-21 01:51:00,70.9,11.7,29.78,NNE,23,0.0,0.0,1,0.00,,,0.00,WUHU216HW,2013-07-21 05:51:00,
2013-07-21 01:56:00,70.7,11.5,29.78,NNE,23,0.0,0.0,1,0.00,,,0.00,WUHU216HW,2013-07-21 05:56:00,
2013-07-21 02:01:00,70.7,11.5,29.78,NNE,23,0.0,0.0,1,0.00,,,0.00,WUHU216HW,2013-07-21 06:01:00,
2013-07-21 02:06:00,70.7,11.5,29.79,NNE,23,0.0,0.0,1,0.00,,,0.00,WUHU216HW,2013-07-21 06:06:00,
2013-07-21 02:11:00,70.6,11.3,29.79,NNE,23,0.0,0.0,1,0.00,,,0.00,WUHU216HW,2013-07-21 06:11:00,
2013-07-21 02:16:00,70.7,11.5,29.79,NNE,23,0.0,0.0,1,0.00,,,0.00,WUHU216HW,2013-07-21 06:16:00,
2013-07-21 02:21:00,70.7,11.5,29.78,NNE,23,0.0,0.0,1,0.00,,,0.00,WUHU216HW,2013-07-21 06:21:00,
2013-07-21 02:26:00,70.6,11.3,29.78,NNE,23,0.0,0.0,1,0.00,,,0.00,WUHU216HW,2013-07-21 06:26:00,
2013-07-21 02:31:00,70.6,11.3,29.78,NNE,23,0.0,0.0,1,0.00,,,0.00,WUHU216HW,2013-07-21 06:31:00,
2013-07-21 02:37:00,70.4,11.3,29.78,NNE,23,0.0,0.0,1,0.00,,,0.00,WUHU216HW,2013-07-21 06:37:00,
2013-07-21 02:42:00,70.2,11.1,29.78,NNE,23,0.0,0.0,1,0.00,,,0.00,WUHU216HW,2013-07-21 06:42:00,
2013-07-21 02:47:00,70.2,11.1,29.78,NNE,23,0.0,0.0,1,0.00,,,0.00,WUHU216HW,2013-07-21 06:47:00,
2013-07-21 02:52:00,70.0,11.0,29.78,NNE,23,0.0,0.0,1,0.00,,,0.00,WUHU216HW,2013-07-21 06:52:00,
2013-07-21 02:57:00,69.8,10.8,29.79,NNE,23,0.0,0.0,1,0.00,,,0.00,WUHU216HW,2013-07-21 06:57:00,
2013-07-21 03:02:00,69.7,10.7,29.79,NNE,23,0.0,0.0,1,0.00,,,0.00,WUHU216HW,2013-07-21 07:02:00,
2013-07-21 03:07:00,69.5,10.5,29.78,NNE,23,0.0,0.0,1,0.00,,,0.00,WUHU216HW,2013-07-21 07:07:00,
2013-07-21 03:12:00,69.5,10.5,29.78,NNE,23,0.0,0.0,1,0.00,,,0.00,WUHU216HW,2013-07-21 07:12:00,
2013-07-21 03:17:00,69.3,10.5,29.78,NNE,23,0.0,0.0,1,0.00,,,0.00,WUHU216HW,2013-07-21 07:17:00,
2013-07-21 03:22:00,69.3,10.5,29.78,NNE,23,0.0,0.0,1,0.00,,,0.00,WUHU216HW,2013-07-21 07:22:00,
2013-07-21 03:27:00,69.1,10.3,29.78,NNE,23,0.0,0.0,1,0.00,,,0.00,WUHU216HW,2013-07-21 07:27:00,
2013-07-21 03:32:00,68.9,10.2,29.78,NNE,23,0.0,0.0,1,0.00,,,0.00,WUHU216HW,2013-07-21 07:32:00,
2013-07-21 03:37:00,68.8,10.1,29.78,NNE,23,0.0,0.0,1,0.00,,,0.00,WUHU216HW,2013-07-21 07:37:00,
2013-07-21 03:42:00,68.8,10.1,29.78,NNE,23,0.0,0.0,1,0.00,,,0.00,WUHU216HW,2013-07-21 07:42:00,
2013-07-21 03:47:00,68.6,9.9,29.78,NNE,23,0.0,0.0,1,0.00,,,0.00,WUHU216HW,2013-07-21 07:47:00,
2013-07-21 03:52:00,68.4,9.8,29.78,WNW,293,0.4,0.4,1,0.00,,,0.00,WUHU216HW,2013-07-21 07:52:00,
2013-07-21 03:57:00,68.6,9.9,29.78,WNW,293,0.0,0.4,1,0.00,,,0.00,WUHU216HW,2013-07-21 07:57:00,
2013-07-21 04:02:00,68.6,9.9,29.78,NNW,338,0.4,0.4,1,0.00,,,0.00,WUHU216HW,2013-07-21 08:02:00,
2013-07-21 04:07:00,68.4,9.8,29.79,NNW,338,0.0,0.4,1,0.00,,,0.00,WUHU216HW,2013-07-21 08:07:00,
2013-07-21 04:12:00,68.4,9.8,29.78,NNW,338,0.0,0.0,1,0.00,,,0.00,WUHU216HW,2013-07-21 08:12:00,
2013-07-21 04:17:00,68.4,9.8,29.78,NNW,338,0.0,0.0,1,0.00,,,0.00,WUHU216HW,2013-07-21 08:17:00,
2013-07-21 04:22:00,68.4,9.8,29.78,NNW,338,0.0,0.7,1,0.00,,,0.00,WUHU216HW,2013-07-21 08:22:00,
2013-07-21 04:27:00,68.2,9.6,29.78,West,270,0.0,0.7,1,0.00,,,0.00,WUHU216HW,2013-07-21 08:27:00,
2013-07-21 04:32:00,68.2,9.6,29.79,West,270,0.7,0.7,1,0.00,,,0.00,WUHU216HW,2013-07-21 08:32:00,
2013-07-21 04:37:00,68.2,9.6,29.79,West,270,0.0,0.7,1,0.00,,,0.00,WUHU216HW,2013-07-21 08:37:00,
2013-07-21 04:42:00,68.0,9.5,29.79,WNW,293,0.0,0.7,1,0.00,,,0.00,WUHU216HW,2013-07-21 08:42:00,
2013-07-21 04:47:00,68.0,9.5,29.79,WNW,293,0.0,0.0,1,0.00,,,0.00,WUHU216HW,2013-07-21 08:47:00,
2013-07-21 04:52:00,68.0,9.5,29.79,WNW,293,0.0,0.0,1,0.00,,,0.00,WUHU216HW,2013-07-21 08:52:00,
2013-07-21 04:57:00,67.9,9.4,29.80,WNW,293,0.0,0.0,1,0.00,,,0.00,WUHU216HW,2013-07-21 08:57:00,
2013-07-21 05:02:00,67.7,9.3,29.80,WNW,293,0.0,0.0,1,0.00,,,0.00,WUHU216HW,2013-07-21 09:02:00,
2013-07-21 05:07:00,67.5,9.1,29.80,WNW,293,0.0,0.0,1,0.00,,,0.00,WUHU216HW,2013-07-21 09:07:00,
2013-07-21 05:12:00,67.3,9.0,29.80,WNW,293,0.0,0.0,1,0.00,,,0.00,WUHU216HW,2013-07-21 09:12:00,
2013-07-21 05:17:00,67.3,9.0,29.80,WNW,293,0.0,0.0,1,0.00,,,0.00,WUHU216HW,2013-07-21 09:17:00,
2013-07-21 05:22:00,67.3,9.0,29.81,WNW,293,0.0,0.0,1,0.00,,,0.00,WUHU216HW,2013-07-21 09:22:00,
2013-07-21 05:27:00,67.1,8.8,29.81,WNW,293,0.0,0.0,1,0.00,,,0.00,WUHU216HW,2013-07-21 09:27:00,
2013-07-21 05:32:00,67.0,8.6,29.81,WNW,293,0.0,0.0,1,0.00,,,0.00,WUHU216HW,2013-07-21 09:32:00,
2013-07-21 05:37:00,67.0,8.6,29.82,WNW,293,0.0,0.0,1,0.00,,,0.00,WUHU216HW,2013-07-21 09:37:00,
2013-07-21 05:42:00,67.0,8.6,29.83,WNW,293,0.0,0.0,1,0.00,,,0.00,WUHU216HW,2013-07-21 09:42:00,
2013-07-21 05:47:00,67.0,8.6,29.83,North,0,0.4,0.7,1,0.00,,,0.00,WUHU216HW,2013-07-21 09:47:00,
2013-07-21 05:52:00,67.0,8.6,29.83,North,0,0.0,0.7,1,0.00,,,0.00,WUHU216HW,2013-07-21 09:52:00,
2013-07-21 05:57:00,67.0,8.6,29.83,North,0,0.0,0.4,1,0.00,,,0.00,WUHU216HW,2013-07-21 09:57:00,
2013-07-21 06:02:00,67.0,8.6,29.83,NNE,23,1.3,1.3,1,0.00,,,0.00,WUHU216HW,2013-07-21 10:02:00,
2013-07-21 06:07:00,67.3,9.0,29.83,WNW,293,0.9,1.3,1,0.00,,,0.00,WUHU216HW,2013-07-21 10:07:00,
2013-07-21 06:12:00,67.7,9.3,29.82,NE,45,1.1,1.3,1,0.00,,,0.00,WUHU216HW,2013-07-21 10:12:00,
2013-07-21 06:17:00,67.7,9.3,29.82,NNE,23,2.5,2.7,1,0.00,,,0.00,WUHU216HW,2013-07-21 10:17:00,
2013-07-21 06:22:00,67.5,9.1,29.82,NNE,23,1.1,2.7,1,0.00,,,0.00,WUHU216HW,2013-07-21 10:22:00,
2013-07-21 06:27:00,67.3,9.0,29.82,ENE,68,2.5,2.5,1,0.00,,,0.00,WUHU216HW,2013-07-21 10:27:00,
2013-07-21 06:32:00,67.0,8.6,29.82,WNW,293,1.1,2.5,1,0.00,,,0.00,WUHU216HW,2013-07-21 10:32:00,
2013-07-21 06:37:00,66.6,8.4,29.82,WNW,293,1.3,2.5,1,0.00,,,0.00,WUHU216HW,2013-07-21 10:37:00,
2013-07-21 06:42:00,66.6,8.4,29.83,NNE,23,1.1,1.3,1,0.00,,,0.00,WUHU216HW,2013-07-21 10:42:00,
2013-07-21 06:47:00,66.6,8.4,29.83,North,0,1.6,1.6,1,0.00,,,0.00,WUHU216HW,2013-07-21 10:47:00,
2013-07-21 06:52:00,66.4,8.3,29.83,North,0,0.4,1.6,1,0.00,,,0.00,WUHU216HW,2013-07-21 10:52:00,
2013-07-21 06:57:00,66.2,8.1,29.83,North,0,0.0,1.6,1,0.00,,,0.00,WUHU216HW,2013-07-21 10:57:00,
2013-07-21 07:02:00,66.1,7.9,29.83,North,0,0.0,0.4,1,0.00,,,0.00,WUHU216HW,2013-07-21 11:02:00,
2013-07-21 07:07:00,66.1,7.9,29.83,North,0,0.0,0.0,1,0.00,,,0.00,WUHU216HW,2013-07-21 11:07:00,
2013-07-21 07:12:00,66.6,8.4,29.83,SSW,203,0.0,0.0,1,0.00,,,0.00,WUHU216HW,2013-07-21 11:12:00,
2013-07-21 07:17:00,69.5,10.5,29.83,SSW,203,0.0,0.0,1,0.00,,,0.00,WUHU216HW,2013-07-21 11:17:00,
2013-07-21 07:22:00,71.8,12.4,29.83,West,270,0.0,1.3,1,0.00,,,0.00,WUHU216HW,2013-07-21 11:22:00,
2013-07-21 07:27:00,74.5,14.4,29.83,WNW,293,0.0,1.3,1,0.00,,,0.00,WUHU216HW,2013-07-21 11:27:00,
2013-07-21 07:32:00,76.5,15.9,29.84,WNW,293,0.2,0.4,1,0.00,,,0.00,WUHU216HW,2013-07-21 11:32:00,
2013-07-21 07:37:00,77.6,16.7,29.84,NW,315,0.0,0.4,1,0.00,,,0.00,WUHU216HW,2013-07-21 11:37:00,
2013-07-21 07:42:00,78.1,17.1,29.84,NW,315,0.9,0.9,1,0.00,,,0.00,WUHU216HW,2013-07-21 11:42:00,
2013-07-21 07:47:00,78.8,17.6,29.84,NNE,23,0.9,1.8,1,0.00,,,0.00,WUHU216HW,2013-07-21 11:47:00,
2013-07-21 07:52:00,77.8,16.9,29.84,ENE,68,0.0,1.8,1,0.00,,,0.00,WUHU216HW,2013-07-21 11:52:00,
2013-07-21 07:57:00,76.1,15.7,29.85,West,270,0.4,0.4,1,0.00,,,0.00,WUHU216HW,2013-07-21 11:57:00,
2013-07-21 08:02:00,75.1,14.9,29.85,NNW,338,0.4,0.4,1,0.00,,,0.00,WUHU216HW,2013-07-21 12:02:00,
2013-07-21 08:07:00,73.6,13.8,29.85,North,0,0.7,0.7,1,0.00,,,0.00,WUHU216HW,2013-07-21 12:07:00,
2013-07-21 08:12:00,74.2,14.2,29.85,North,0,1.6,1.6,1,0.00,,,0.00,WUHU216HW,2013-07-21 12:12:00,
2013-07-21 08:17:00,75.8,15.4,29.85,NE,45,1.3,2.5,1,0.00,,,0.00,WUHU216HW,2013-07-21 12:17:00,
2013-07-21 08:22:00,76.3,15.9,29.85,NW,315,0.9,2.5,1,0.00,,,0.00,WUHU216HW,2013-07-21 12:22:00,
2013-07-21 08:27:00,75.4,15.1,29.85,NW,315,0.0,1.3,1,0.00,,,0.00,WUHU216HW,2013-07-21 12:27:00,
2013-07-21 08:32:00,74.7,14.6,29.85,NNE,23,1.1,1.1,1,0.00,,,0.00,WUHU216HW,2013-07-21 12:32:00,
2013-07-21 08:37:00,75.6,15.2,29.85,NW,315,1.6,1.8,1,0.00,,,0.00,WUHU216HW,2013-07-21 12:37:00,
2013-07-21 08:42:00,76.1,15.7,29.86,NE,45,1.1,1.8,1,0.00,,,0.00,WUHU216HW,2013-07-21 12:42:00,
2013-07-21 08:47:00,76.7,16.1,29.86,North,0,0.9,1.3,1,0.00,,,0.00,WUHU216HW,2013-07-21 12:47:00,
2013-07-21 08:52:00,76.3,15.9,29.86,NE,45,1.1,4.0,1,0.00,,,0.00,WUHU216HW,2013-07-21 12:52:00,
2013-07-21 08:57:00,76.3,15.9,29.86,NE,45,3.4,4.0,1,0.00,,,0.00,WUHU216HW,2013-07-21 12:57:00,
2013-07-21 09:02:00,76.0,15.5,29.86,WNW,293,0.7,3.4,7,0.00,,,0.00,WUHU216HW,2013-07-21 13:02:00,
2013-07-21 09:07:00,75.2,14.9,29.86,NNE,23,1.8,1.8,1,0.00,,,0.00,WUHU216HW,2013-07-21 13:07:00,
2013-07-21 09:12:00,74.9,14.7,29.86,NNW,338,1.1,1.8,1,0.00,,,0.00,WUHU216HW,2013-07-21 13:12:00,
2013-07-21 09:17:00,74.7,14.6,29.86,NW,315,0.9,1.1,1,0.00,,,0.00,WUHU216HW,2013-07-21 13:17:00,
2013-07-21 09:22:00,74.9,14.7,29.86,NNW,338,0.0,0.9,1,0.00,,,0.00,WUHU216HW,2013-07-21 13:22:00,
2013-07-21 09:27:00,75.6,15.2,29.86,West,270,1.1,1.1,1,0.00,,,0.00,WUHU216HW,2013-07-21 13:27:00,
2013-07-21 09:32:00,76.0,15.5,29.86,North,0,2.2,2.2,1,0.00,,,0.00,WUHU216HW,2013-07-21 13:32:00,
2013-07-21 09:42:00,75.1,14.9,29.86,NNE,23,3.4,4.5,1,0.00,,,0.00,WUHU216HW,2013-07-21 13:42:00,
2013-07-21 09:47:00,74.9,14.7,29.86,North,0,1.1,4.5,1,0.00,,,0.00,WUHU216HW,2013-07-21 13:47:00,
2013-07-21 09:52:00,75.1,14.9,29.86,NNW,338,1.8,3.4,1,0.00,,,0.00,WUHU216HW,2013-07-21 13:52:00,
2013-07-21 09:57:00,74.7,14.6,29.86,WNW,293,2.2,2.5,1,0.00,,,0.00,WUHU216HW,2013-07-21 13:57:00,
2013-07-21 10:03:00,74.7,14.6,29.86,WNW,293,2.0,2.5,1,0.00,,,0.00,WUHU216HW,2013-07-21 14:03:00,
2013-07-21 10:08:00,76.1,15.7,29.86,NE,45,2.2,2.5,1,0.00,,,0.00,WUHU216HW,2013-07-21 14:08:00,
2013-07-21 10:13:00,77.6,16.7,29.86,NE,45,1.3,2.5,1,0.00,,,0.00,WUHU216HW,2013-07-21 14:13:00,
2013-07-21 10:18:00,78.7,17.6,29.86,NE,45,2.9,2.9,1,0.00,,,0.00,WUHU216HW,2013-07-21 14:18:00,
2013-07-21 10:23:00,78.7,17.6,29.86,ESE,113,1.8,3.6,10,0.00,,,0.00,WUHU216HW,2013-07-21 14:23:00,
2013-07-21 10:28:00,78.3,25.6,29.87,East,90,1.8,3.6,15,0.00,,,0.00,WUHU216HW,2013-07-21 14:28:00,
2013-07-21 10:33:00,77.9,17.0,29.87,NNE,23,1.6,3.6,8,0.00,,,0.00,WUHU216HW,2013-07-21 14:33:00,
2013-07-21 10:38:00,77.9,17.0,29.87,East,90,2.5,2.5,5,0.00,,,0.00,WUHU216HW,2013-07-21 14:38:00,
2013-07-21 10:43:00,77.8,16.9,29.87,NNE,23,0.2,2.5,1,0.00,,,0.00,WUHU216HW,2013-07-21 14:43:00,
2013-07-21 10:48:00,78.3,17.3,29.87,NE,45,1.3,2.5,8,0.00,,,0.00,WUHU216HW,2013-07-21 14:48:00,
2013-07-21 10:53:00,79.0,17.8,29.87,NW,315,0.0,2.5,3,0.00,,,0.00,WUHU216HW,2013-07-21 14:53:00,
2013-07-21 10:58:00,79.9,18.6,29.87,South,180,0.4,1.6,2,0.00,,,0.00,WUHU216HW,2013-07-21 14:58:00,
2013-07-21 11:03:00,80.3,31.5,29.87,NNW,338,1.1,1.6,17,0.00,,,0.00,WUHU216HW,2013-07-21 15:03:00,
2013-07-21 11:08:00,79.9,18.6,29.88,ESE,113,1.3,1.6,2,0.00,,,0.00,WUHU216HW,2013-07-21 15:08:00,
2013-07-21 11:18:00,81.0,19.4,29.87,NW,315,0.4,1.3,8,0.00,,,0.00,WUHU216HW,2013-07-21 15:18:00,
2013-07-21 11:23:00,81.7,49.7,29.87,NW,315,4.7,5.4,33,0.00,,,0.00,WUHU216HW,2013-07-21 15:23:00,
2013-07-21 11:28:00,81.2,40.6,29.87,NNW,338,2.9,5.4,24,0.00,,,0.00,WUHU216HW,2013-07-21 15:28:00,
2013-07-21 11:33:00,81.0,38.3,29.87,ESE,113,0.4,2.9,22,0.00,,,0.00,WUHU216HW,2013-07-21 15:33:00,
2013-07-21 11:38:00,81.4,50.1,29.87,NNE,23,2.0,4.0,34,0.00,,,0.00,WUHU216HW,2013-07-21 15:38:00,
2013-07-21 11:43:00,81.7,48.9,29.87,NW,315,1.6,4.0,32,0.00,,,0.00,WUHU216HW,2013-07-21 15:43:00,
2013-07-21 11:48:00,82.3,43.6,29.87,NNE,23,1.6,3.6,26,0.00,,,0.00,WUHU216HW,2013-07-21 15:48:00,
2013-07-21 11:53:00,82.6,48.1,29.87,NE,45,0.9,3.4,30,0.00,,,0.00,WUHU216HW,2013-07-21 15:53:00,
2013-07-21 11:58:00,83.3,57.9,29.88,NNE,23,5.6,5.6,42,0.00,,,0.00,WUHU216HW,2013-07-21 15:58:00,
2013-07-21 12:03:00,83.0,56.9,29.88,East,90,2.9,5.6,41,0.00,,,0.00,WUHU216HW,2013-07-21 16:03:00,
2013-07-21 12:08:00,82.8,55.4,29.87,NNE,23,1.8,2.9,39,0.00,,,0.00,WUHU216HW,2013-07-21 16:08:00,
2013-07-21 12:13:00,83.9,58.3,29.88,NNE,23,3.4,3.4,42,0.00,,,0.00,WUHU216HW,2013-07-21 16:13:00,
2013-07-21 12:18:00,84.1,53.3,29.87,ENE,68,2.5,3.4,35,0.00,,,0.00,WUHU216HW,2013-07-21 16:18:00,
2013-07-21 12:23:00,85.0,59.3,29.87,WNW,293,4.0,4.0,42,0.00,,,0.00,WUHU216HW,2013-07-21 16:23:00,
2013-07-21 12:28:00,85.0,58.7,29.87,NNE,23,1.8,4.0,41,0.00,,,0.00,WUHU216HW,2013-07-21 16:28:00,
2013-07-21 12:33:00,85.0,54.9,29.87,NNE,23,1.1,2.7,36,0.00,,,0.00,WUHU216HW,2013-07-21 16:33:00,
2013-07-21 12:38:00,86.6,57.2,29.88,ESE,113,1.6,1.6,37,0.00,,,0.00,WUHU216HW,2013-07-21 16:38:00,
2013-07-21 12:43:00,87.1,59.2,29.88,SE,135,0.7,1.6,39,0.00,,,0.00,WUHU216HW,2013-07-21 16:43:00,
2013-07-21 12:48:00,87.5,60.9,29.87,East,90,3.8,3.8,41,0.00,,,0.00,WUHU216HW,2013-07-21 16:48:00,
2013-07-21 12:53:00,87.7,63.6,29.88,NNW,338,2.5,3.8,45,0.00,,,0.00,WUHU216HW,2013-07-21 16:53:00,
2013-07-21 12:58:00,87.3,62.1,29.88,NW,315,1.1,3.8,43,0.00,,,0.00,WUHU216HW,2013-07-21 16:58:00,
2013-07-21 13:03:00,86.9,63.0,29.87,North,0,0.2,1.8,45,0.00,,,0.00,WUHU216HW,2013-07-21 17:03:00,
2013-07-21 13:08:00,86.6,62.6,29.87,NNW,338,2.2,2.5,45,0.00,,,0.00,WUHU216HW,2013-07-21 17:08:00,
2013-07-21 13:13:00,87.3,63.4,29.87,NNE,23,1.1,3.8,45,0.00,,,0.00,WUHU216HW,2013-07-21 17:13:00,
2013-07-21 13:18:00,87.3,62.7,29.87,North,0,1.1,3.8,44,0.00,,,0.00,WUHU216HW,2013-07-21 17:18:00,
2013-07-21 13:23:00,87.7,63.6,29.87,North,0,0.9,2.9,45,0.00,,,0.00,WUHU216HW,2013-07-21 17:23:00,
2013-07-21 13:28:00,87.1,63.2,29.87,NNE,23,0.4,3.4,45,0.00,,,0.00,WUHU216HW,2013-07-21 17:28:00,
2013-07-21 13:33:00,86.9,63.0,29.87,North,0,0.9,3.4,45,0.00,,,0.00,WUHU216HW,2013-07-21 17:33:00,
2013-07-21 13:38:00,86.2,62.4,29.87,NNW,338,2.2,2.2,45,0.00,,,0.00,WUHU216HW,2013-07-21 17:38:00,
2013-07-21 13:43:00,86.0,63.5,29.87,WNW,293,1.1,2.2,47,0.00,,,0.00,WUHU216HW,2013-07-21 17:43:00,
2013-07-21 13:48:00,85.1,58.9,29.87,NW,315,0.0,1.1,41,0.00,,,0.00,WUHU216HW,2013-07-21 17:48:00,
2013-07-21 13:53:00,85.5,59.2,29.87,NNW,338,0.0,1.1,41,0.00,,,0.00,WUHU216HW,2013-07-21 17:53:00,
2013-07-21 13:58:00,86.2,59.9,29.87,East,90,1.6,1.6,41,0.00,,,0.00,WUHU216HW,2013-07-21 17:58:00,
2013-07-21 14:03:00,86.6,62.0,29.86,NNE,23,1.1,1.6,44,0.00,,,0.00,WUHU216HW,2013-07-21 18:03:00,
2013-07-21 14:08:00,87.3,62.7,29.87,NW,315,2.5,2.5,44,0.00,,,0.00,WUHU216HW,2013-07-21 18:08:00,
2013-07-21 14:13:00,87.1,61.9,29.86,NE,45,0.2,2.5,43,0.00,,,0.00,WUHU216HW,2013-07-21 18:13:00,
2013-07-21 14:18:00,86.6,60.8,29.87,ESE,113,0.9,2.5,42,0.00,,,0.00,WUHU216HW,2013-07-21 18:18:00,
2013-07-21 14:23:00,86.2,60.5,29.87,East,90,0.0,0.9,42,0.00,,,0.00,WUHU216HW,2013-07-21 18:23:00,
2013-07-21 14:28:00,86.9,55.8,29.86,ESE,113,1.6,1.6,35,0.00,,,0.00,WUHU216HW,2013-07-21 18:28:00,
2013-07-21 14:33:00,88.4,63.0,29.86,ENE,68,2.2,2.2,43,0.00,,,0.00,WUHU216HW,2013-07-21 18:33:00,
2013-07-21 14:38:00,88.6,60.4,29.86,ENE,68,0.4,2.2,39,0.00,,,0.00,WUHU216HW,2013-07-21 18:38:00,
2013-07-21 14:43:00,89.6,62.1,29.86,South,180,2.2,2.2,40,0.00,,,0.00,WUHU216HW,2013-07-21 18:43:00,
2013-07-21 14:48:00,89.8,65.5,29.86,NNE,23,2.5,2.5,45,0.00,,,0.00,WUHU216HW,2013-07-21 18:48:00,
2013-07-21 14:53:00,88.7,64.6,29.86,NNW,338,0.4,2.5,45,0.00,,,0.00,WUHU216HW,2013-07-21 18:53:00,
2013-07-21 14:58:00,87.3,63.4,29.86,ENE,68,0.9,2.5,45,0.00,,,0.00,WUHU216HW,2013-07-21 18:58:00,
2013-07-21 15:03:00,87.1,63.2,29.86,NNW,338,2.0,2.0,45,0.00,,,0.00,WUHU216HW,2013-07-21 19:03:00,
2013-07-21 15:08:00,87.1,63.2,29.86,North,0,0.9,2.0,45,0.00,,,0.00,WUHU216HW,2013-07-21 19:08:00,
2013-07-21 15:13:00,87.5,58.7,29.86,South,180,1.8,1.8,38,0.00,,,0.00,WUHU216HW,2013-07-21 19:13:00,
2013-07-21 15:18:00,88.0,59.2,29.86,South,180,1.8,2.0,38,0.00,,,0.00,WUHU216HW,2013-07-21 19:18:00,
2013-07-21 15:23:00,88.6,59.7,29.86,South,180,4.0,5.1,38,0.00,,,0.00,WUHU216HW,2013-07-21 19:23:00,
2013-07-21 15:28:00,87.5,62.2,29.86,North,0,1.6,5.1,43,0.00,,,0.00,WUHU216HW,2013-07-21 19:28:00,
2013-07-21 15:33:00,86.0,58.2,29.86,South,180,2.0,4.9,39,0.00,,,0.00,WUHU216HW,2013-07-21 19:33:00,
2013-07-21 15:38:00,85.5,56.2,29.86,SSW,203,2.7,2.7,37,0.00,,,0.00,WUHU216HW,2013-07-21 19:38:00,
2013-07-21 15:43:00,86.0,55.1,29.86,ENE,68,1.3,2.7,35,0.00,,,0.00,WUHU216HW,2013-07-21 19:43:00,
2013-07-21 15:48:00,85.9,54.1,29.86,SE,135,2.5,2.9,34,0.00,,,0.00,WUHU216HW,2013-07-21 19:48:00,
2013-07-21 15:53:00,85.9,56.5,29.86,South,180,2.9,2.9,37,0.00,,,0.00,WUHU216HW,2013-07-21 19:53:00,
2013-07-21 15:58:00,85.5,57.8,29.86,ENE,68,1.1,2.9,39,0.00,,,0.00,WUHU216HW,2013-07-21 19:58:00,
2013-07-21 16:03:00,85.3,56.8,29.86,South,180,3.8,4.5,38,0.00,,,0.00,WUHU216HW,2013-07-21 20:03:00,
2013-07-21 16:08:00,84.1,54.9,29.86,SE,135,1.3,4.5,37,0.00,,,0.00,WUHU216HW,2013-07-21 20:08:00,
2013-07-21 16:13:00,83.9,54.7,29.86,ENE,68,2.5,3.4,37,0.00,,,0.00,WUHU216HW,2013-07-21 20:13:00,
2013-07-21 16:18:00,83.7,53.0,29.86,SSW,203,4.0,4.7,35,0.00,,,0.00,WUHU216HW,2013-07-21 20:18:00,
2013-07-21 16:23:00,83.5,54.4,29.86,ENE,68,2.0,4.7,37,0.00,,,0.00,WUHU216HW,2013-07-21 20:23:00,
2013-07-21 16:28:00,83.2,51.7,29.86,SSW,203,6.0,6.0,34,0.00,,,0.00,WUHU216HW,2013-07-21 20:28:00,
2013-07-21 16:33:00,82.8,51.4,29.86,West,270,1.8,6.0,34,0.00,,,0.00,WUHU216HW,2013-07-21 20:33:00,
2013-07-21 16:38:00,82.6,51.2,29.86,WSW,248,2.5,4.9,34,0.00,,,0.00,WUHU216HW,2013-07-21 20:38:00,
2013-07-21 16:43:00,82.3,51.7,29.86,SSW,203,2.5,4.3,35,0.00,,,0.00,WUHU216HW,2013-07-21 20:43:00,
2013-07-21 16:48:00,82.1,51.6,29.86,SSE,158,3.1,4.3,35,0.00,,,0.00,WUHU216HW,2013-07-21 20:48:00,
2013-07-21 16:53:00,81.2,50.0,29.85,WSW,248,1.1,3.1,34,0.00,,,0.00,WUHU216HW,2013-07-21 20:53:00,
2013-07-21 16:58:00,81.0,48.2,29.85,SSW,203,6.7,6.7,32,0.00,,,0.00,WUHU216HW,2013-07-21 20:58:00,
2013-07-21 17:03:00,80.8,48.9,29.85,NW,315,0.4,6.7,33,0.00,,,0.00,WUHU216HW,2013-07-21 21:03:00,
2013-07-21 17:08:00,80.5,48.6,29.85,North,0,1.6,2.9,33,0.00,,,0.00,WUHU216HW,2013-07-21 21:08:00,
2013-07-21 17:13:00,80.3,46.9,29.85,ENE,68,1.1,2.2,31,0.00,,,0.00,WUHU216HW,2013-07-21 21:13:00,
2013-07-21 17:18:00,80.3,46.1,29.85,ESE,113,1.3,2.0,30,0.00,,,0.00,WUHU216HW,2013-07-21 21:18:00,
2013-07-21 17:23:00,80.3,45.1,29.85,SSE,158,2.5,3.4,29,0.00,,,0.00,WUHU216HW,2013-07-21 21:23:00,
2013-07-21 17:28:00,80.3,44.0,29.85,SSW,203,2.2,3.4,28,0.00,,,0.00,WUHU216HW,2013-07-21 21:28:00,
2013-07-21 17:33:00,80.3,44.0,29.85,NE,45,1.6,2.9,28,0.00,,,0.00,WUHU216HW,2013-07-21 21:33:00,
2013-07-21 17:38:00,79.9,41.6,29.84,North,0,2.0,2.9,26,0.00,,,0.00,WUHU216HW,2013-07-21 21:38:00,
2013-07-21 17:43:00,79.9,41.6,29.84,WSW,248,2.2,2.2,26,0.00,,,0.00,WUHU216HW,2013-07-21 21:43:00,
2013-07-21 17:49:00,79.7,41.5,29.84,SSW,203,1.8,3.8,26,0.00,,,0.00,WUHU216HW,2013-07-21 21:49:00,
2013-07-21 17:54:00,79.6,43.4,29.84,NE,45,1.6,3.8,28,0.00,,,0.00,WUHU216HW,2013-07-21 21:54:00,
2013-07-21 17:59:00,79.6,40.2,29.84,SSW,203,0.2,2.0,25,0.00,,,0.00,WUHU216HW,2013-07-21 21:59:00,
2013-07-21 18:04:00,79.6,41.3,29.84,SSW,203,0.4,2.0,26,0.00,,,0.00,WUHU216HW,2013-07-21 22:04:00,
2013-07-21 18:09:00,79.6,40.2,29.85,NE,45,1.6,1.8,25,0.00,,,0.00,WUHU216HW,2013-07-21 22:09:00,
2013-07-21 18:19:00,79.4,41.1,29.85,WSW,248,0.9,2.0,26,0.00,,,0.00,WUHU216HW,2013-07-21 22:19:00,
2013-07-21 18:24:00,79.2,40.0,29.85,South,180,0.4,2.0,25,0.00,,,0.00,WUHU216HW,2013-07-21 22:24:00,
2013-07-21 18:29:00,78.8,39.6,29.85,North,0,0.0,0.7,25,0.00,,,0.00,WUHU216HW,2013-07-21 22:29:00,
2013-07-21 18:34:00,78.8,38.5,29.85,North,0,0.9,0.9,24,0.00,,,0.00,WUHU216HW,2013-07-21 22:34:00,
2013-07-21 18:39:00,78.8,37.5,29.85,NE,45,0.0,0.9,23,0.00,,,0.00,WUHU216HW,2013-07-21 22:39:00,
2013-07-21 18:44:00,78.8,32.7,29.85,South,180,0.9,1.3,19,0.00,,,0.00,WUHU216HW,2013-07-21 22:44:00,
2013-07-21 18:49:00,78.8,29.3,29.85,South,180,0.0,1.3,17,0.00,,,0.00,WUHU216HW,2013-07-21 22:49:00,
2013-07-21 18:54:00,78.8,29.3,29.85,South,180,0.2,0.2,17,0.00,,,0.00,WUHU216HW,2013-07-21 22:54:00,
2013-07-21 18:59:00,78.7,29.3,29.85,ENE,68,0.0,1.1,17,0.00,,,0.00,WUHU216HW,2013-07-21 22:59:00,
2013-07-21 19:04:00,78.5,29.1,29.85,ENE,68,0.0,1.1,17,0.00,,,0.00,WUHU216HW,2013-07-21 23:04:00,
2013-07-21 19:09:00,78.3,32.3,29.85,North,0,0.4,0.4,19,0.00,,,0.00,WUHU216HW,2013-07-21 23:09:00,
2013-07-21 19:14:00,78.1,32.1,29.85,West,270,0.0,0.4,19,0.00,,,0.00,WUHU216HW,2013-07-21 23:14:00,
2013-07-21 19:19:00,77.9,33.7,29.85,West,270,0.4,1.6,20,0.00,,,0.00,WUHU216HW,2013-07-21 23:19:00,
2013-07-21 19:24:00,77.9,35.7,29.85,West,270,0.9,1.6,22,0.00,,,0.00,WUHU216HW,2013-07-21 23:24:00,
2013-07-21 19:29:00,77.8,37.7,29.85,East,90,0.0,1.1,24,0.00,,,0.00,WUHU216HW,2013-07-21 23:29:00,
2013-07-21 19:34:00,77.4,38.4,29.85,NNE,23,0.0,1.1,25,0.00,,,0.00,WUHU216HW,2013-07-21 23:34:00,
2013-07-21 19:39:00,77.0,37.1,29.85,NW,315,0.2,1.1,24,0.00,,,0.00,WUHU216HW,2013-07-21 23:39:00,
2013-07-21 19:44:00,77.0,36.1,29.85,NNW,338,0.0,1.1,23,0.00,,,0.00,WUHU216HW,2013-07-21 23:44:00,
2013-07-21 19:49:00,76.7,35.7,29.85,NNW,338,0.0,0.9,23,0.00,,,0.00,WUHU216HW,2013-07-21 23:49:00,
2013-07-21 19:54:00,76.3,35.5,29.85,NNW,338,0.0,0.9,23,0.00,,,0.00,WUHU216HW,2013-07-21 23:54:00,
2013-07-21 19:59:00,76.0,36.2,29.85,NW,315,0.0,0.0,24,0.00,,,0.00,WUHU216HW,2013-07-21 23:59:00,
2013-07-21 20:04:00,75.6,36.9,29.85,WSW,248,0.2,0.9,25,0.00,,,0.00,WUHU216HW,2013-07-22 00:04:00,
2013-07-21 20:09:00,75.4,37.8,29.85,South,180,0.0,1.8,26,0.00,,,0.00,WUHU216HW,2013-07-22 00:09:00,
2013-07-21 20:14:00,75.2,37.6,29.85,SSW,203,0.4,1.8,26,0.00,,,0.00,WUHU216HW,2013-07-22 00:14:00,
2013-07-21 20:19:00,74.9,37.4,29.85,ENE,68,0.0,1.3,26,0.00,,,0.00,WUHU216HW,2013-07-22 00:19:00,
2013-07-21 20:24:00,74.5,37.1,29.85,ENE,68,0.9,1.3,26,0.00,,,0.00,WUHU216HW,2013-07-22 00:24:00,
2013-07-21 20:29:00,74.3,35.8,29.86,ENE,68,0.0,1.1,25,0.00,,,0.00,WUHU216HW,2013-07-22 00:29:00,
2013-07-21 20:34:00,74.2,35.7,29.86,ENE,68,0.7,0.9,25,0.00,,,0.00,WUHU216HW,2013-07-22 00:34:00,
2013-07-21 20:39:00,73.4,33.1,29.86,ENE,68,0.0,0.7,23,0.00,,,0.00,WUHU216HW,2013-07-22 00:39:00,
2013-07-21 20:44:00,73.1,30.8,29.86,ENE,68,0.0,0.7,21,0.00,,,0.00,WUHU216HW,2013-07-22 00:44:00,
2013-07-21 20:49:00,72.9,26.3,29.87,ENE,68,0.0,0.4,18,0.00,,,0.00,WUHU216HW,2013-07-22 00:49:00,
2013-07-21 20:54:00,72.5,21.1,29.87,ENE,68,0.0,0.2,15,0.00,,,0.00,WUHU216HW,2013-07-22 00:54:00,
2013-07-21 20:59:00,72.0,15.8,29.87,ENE,68,0.0,0.0,12,0.00,,,0.00,WUHU216HW,2013-07-22 00:59:00,
2013-07-21 21:04:00,71.6,12.2,29.87,ENE,68,0.0,0.7,7,0.00,,,0.00,WUHU216HW,2013-07-22 01:04:00,
2013-07-21 21:09:00,71.3,12.0,29.88,ENE,68,0.0,0.7,2,0.00,,,0.00,WUHU216HW,2013-07-22 01:09:00,
2013-07-21 21:14:00,70.9,11.7,29.88,ENE,68,0.0,0.7,1,0.00,,,0.00,WUHU216HW,2013-07-22 01:14:00,
2013-07-21 21:19:00,70.7,11.5,29.88,ENE,68,0.0,0.0,1,0.00,,,0.00,WUHU216HW,2013-07-22 01:19:00,
2013-07-21 21:24:00,70.2,11.1,29.88,ENE,68,0.0,0.0,1,0.00,,,0.00,WUHU216HW,2013-07-22 01:24:00,
2013-07-21 21:29:00,69.8,10.8,29.88,ENE,68,0.2,0.2,1,0.00,,,0.00,WUHU216HW,2013-07-22 01:29:00,
2013-07-21 21:34:00,69.7,10.7,29.88,ENE,68,0.0,0.2,1,0.00,,,0.00,WUHU216HW,2013-07-22 01:34:00,
2013-07-21 21:39:00,69.7,10.7,29.89,ENE,68,0.0,0.0,1,0.00,,,0.00,WUHU216HW,2013-07-22 01:39:00,
2013-07-21 21:44:00,69.3,10.5,29.89,ENE,68,0.0,0.0,1,0.00,,,0.00,WUHU216HW,2013-07-22 01:44:00,
2013-07-21 21:49:00,69.1,10.3,29.89,ENE,68,0.0,0.0,1,0.00,,,0.00,WUHU216HW,2013-07-22 01:49:00,
2013-07-21 21:54:00,68.8,10.1,29.89,ENE,68,0.0,0.0,1,0.00,,,0.00,WUHU216HW,2013-07-22 01:54:00,
2013-07-21 21:59:00,68.6,9.9,29.89,ENE,68,0.0,0.0,1,0.00,,,0.00,WUHU216HW,2013-07-22 01:59:00,
2013-07-21 22:04:00,68.0,9.5,29.89,ENE,68,0.0,0.0,1,0.00,,,0.00,WUHU216HW,2013-07-22 02:04:00,
2013-07-21 22:09:00,67.9,9.4,29.89,ENE,68,0.0,0.0,1,0.00,,,0.00,WUHU216HW,2013-07-22 02:09:00,
2013-07-21 22:14:00,67.7,9.3,29.89,ENE,68,0.0,0.0,1,0.00,,,0.00,WUHU216HW,2013-07-22 02:14:00,
2013-07-21 22:19:00,67.3,9.0,29.89,ENE,68,0.0,0.0,1,0.00,,,0.00,WUHU216HW,2013-07-22 02:19:00,
2013-07-21 22:24:00,67.1,8.8,29.89,ENE,68,0.0,0.0,1,0.00,,,0.00,WUHU216HW,2013-07-22 02:24:00,
2013-07-21 22:29:00,67.0,8.6,29.88,ENE,68,0.0,0.0,1,0.00,,,0.00,WUHU216HW,2013-07-22 02:29:00,
2013-07-21 22:34:00,67.0,8.6,29.89,ENE,68,0.0,0.0,1,0.00,,,0.00,WUHU216HW,2013-07-22 02:34:00,
2013-07-21 22:39:00,66.8,8.6,29.89,ENE,68,0.0,0.0,1,0.00,,,0.00,WUHU216HW,2013-07-22 02:39:00,
2013-07-21 22:44:00,66.8,8.6,29.89,ENE,68,0.0,0.0,1,0.00,,,0.00,WUHU216HW,2013-07-22 02:44:00,
2013-07-21 22:49:00,66.6,8.4,29.89,ENE,68,0.0,0.0,1,0.00,,,0.00,WUHU216HW,2013-07-22 02:49:00,
2013-07-21 22:54:00,66.6,8.4,29.89,ENE,68,0.0,0.0,1,0.00,,,0.00,WUHU216HW,2013-07-22 02:54:00,
2013-07-21 22:59:00,66.6,8.4,29.89,North,0,0.0,0.0,1,0.00,,,0.00,WUHU216HW,2013-07-22 02:59:00,
2013-07-21 23:04:00,66.6,8.4,29.89,North,0,0.0,0.0,1,0.00,,,0.00,WUHU216HW,2013-07-22 03:04:00,
2013-07-21 23:09:00,66.8,8.6,29.89,North,0,0.0,0.0,1,0.00,,,0.00,WUHU216HW,2013-07-22 03:09:00,
2013-07-21 23:14:00,66.8,8.6,29.89,North,0,0.0,0.0,1,0.00,,,0.00,WUHU216HW,2013-07-22 03:14:00,
2013-07-21 23:19:00,67.0,8.6,29.89,WNW,293,1.3,1.3,1,0.00,,,0.00,WUHU216HW,2013-07-22 03:19:00,
2013-07-21 23:24:00,67.1,8.8,29.89,WNW,293,0.0,1.3,1,0.00,,,0.00,WUHU216HW,2013-07-22 03:24:00,
2013-07-21 23:29:00,67.1,8.8,29.89,WNW,293,0.0,0.0,1,0.00,,,0.00,WUHU216HW,2013-07-22 03:29:00,
2013-07-21 23:34:00,67.3,9.0,29.89,NE,45,0.7,0.9,1,0.00,,,0.00,WUHU216HW,2013-07-22 03:34:00,
2013-07-21 23:39:00,67.9,9.4,29.89,NW,315,0.0,0.9,1,0.00,,,0.00,WUHU216HW,2013-07-22 03:39:00,
2013-07-21 23:44:00,68.0,9.5,29.88,NW,315,0.0,0.7,1,0.00,,,0.00,WUHU216HW,2013-07-22 03:44:00,
2013-07-21 23:49:00,68.0,9.5,29.88,NNW,338,0.0,0.4,1,0.00,,,0.00,WUHU216HW,2013-07-22 03:49:00,
2013-07-21 23:54:00,68.0,9.5,29.88,NNW,338,0.0,0.0,1,0.00,,,0.00,WUHU216HW,2013-07-22 03:54:00,
2013-07-21 23:59:00,68.2,9.6,29.88,NNW,338,0.4,0.9,1,0.00,,,0.00,WUHU216HW,2013-07-22 03:59:00,